Terminal Aerodrome Forecast
Issued by NWS Lake Charles, LA

Home | Current Version | Previous Version | Text Only | Print | Product List | Glossary On
Versions: 1 2 3 4 5 6 7 8 9 10 11 12 13 14 15 16 17 18 19 20 21 22 23
122
FTUS44 KLCH 232335
TAFLFT
TAF
KLFT 232335Z 2400/2424 18008KT P6SM SKC
     FM240400 17007KT 4SM BR SKC
     FM240800 16005KT 4SM BR OVC008
      TEMPO 2410/2414 1/2SM FG OVC002
     FM241600 21012G18KT P6SM BKN015
     FM242100 22010G15KT P6SM BKN025=

USA.gov is the U.S. government's official web portal to all federal, state and local government web resources and services.